createdAt,value
2022-09-30T00:00:26.575Z,4.85
2022-09-30T00:05:28.211Z,4.85
2022-09-30T00:10:29.681Z,5.10
2022-09-30T00:15:31.128Z,5.13
2022-09-30T00:20:34.861Z,4.97
2022-09-30T00:25:36.351Z,4.57
2022-09-30T00:30:37.817Z,4.78
2022-09-30T00:35:39.539Z,4.60
2022-09-30T00:40:41.508Z,4.30
2022-09-30T00:45:51.148Z,4.40
2022-09-30T00:50:55.585Z,4.88
2022-09-30T00:56:09.566Z,5.22
2022-09-30T01:01:11.421Z,5.03
2022-09-30T01:06:13.203Z,5.10
2022-09-30T01:11:15.430Z,4.78
2022-09-30T01:16:34.843Z,4.82
2022-09-30T01:22:04.866Z,4.80
2022-09-30T01:27:12.326Z,5.50
2022-09-30T01:32:45.997Z,5.35
2022-09-30T01:38:09.232Z,5.80
2022-09-30T01:43:13.293Z,5.40
2022-09-30T01:48:22.095Z,5.53
2022-09-30T01:53:47.189Z,6.32
2022-09-30T01:58:59.122Z,5.88
2022-09-30T02:04:07.237Z,5.63
2022-09-30T02:09:14.468Z,5.85
2022-09-30T02:14:30.796Z,5.80
2022-09-30T02:19:42.473Z,5.78
2022-09-30T02:24:47.362Z,5.43
2022-09-30T02:29:54.784Z,5.97
2022-09-30T02:35:23.558Z,5.57
2022-09-30T02:40:28.621Z,6.25
2022-09-30T02:45:36.842Z,5.80
2022-09-30T02:50:49.202Z,6.30
2022-09-30T02:56:02.723Z,5.35
2022-09-30T03:01:04.305Z,6.15
2022-09-30T03:06:06.024Z,5.75
2022-09-30T03:11:12.073Z,5.53
2022-09-30T03:16:22.628Z,6.05
2022-09-30T03:21:50.810Z,5.95
2022-09-30T03:27:19.491Z,6.28
2022-09-30T03:32:48.863Z,6.18
2022-09-30T03:38:13.775Z,6.00
2022-09-30T03:43:25.000Z,7.25
2022-09-30T03:48:29.167Z,7.28
2022-09-30T03:53:30.867Z,6.53
2022-09-30T03:58:32.795Z,6.30
2022-09-30T04:03:35.497Z,6.05
2022-09-30T04:08:36.965Z,6.82
2022-09-30T04:13:38.928Z,6.43
2022-09-30T04:18:40.524Z,6.93
2022-09-30T04:23:43.117Z,6.15
2022-09-30T04:28:44.592Z,6.75
2022-09-30T04:33:46.098Z,6.50
2022-09-30T04:38:47.602Z,6.78
2022-09-30T04:43:49.266Z,7.20
2022-09-30T04:48:50.746Z,7.47
2022-09-30T04:53:52.217Z,7.20
2022-09-30T04:58:54.513Z,7.75
2022-09-30T05:03:56.005Z,7.60
2022-09-30T05:08:57.581Z,7.53
2022-09-30T05:13:59.186Z,7.55
2022-09-30T05:19:00.646Z,8.40
2022-09-30T05:24:03.155Z,7.93
2022-09-30T05:29:04.619Z,8.32
2022-09-30T05:34:06.083Z,7.88
2022-09-30T05:39:07.548Z,8.75
2022-09-30T05:44:09.456Z,9.20
2022-09-30T05:49:10.994Z,8.63
2022-09-30T05:54:12.523Z,9.20
2022-09-30T05:59:13.998Z,8.93
2022-09-30T06:04:15.517Z,8.93
2022-09-30T06:09:17.349Z,8.05
2022-09-30T06:14:20.286Z,8.43
2022-09-30T06:19:21.774Z,9.20
2022-09-30T06:24:23.581Z,9.95
2022-09-30T06:29:25.087Z,10.23
2022-09-30T06:34:26.745Z,10.27
2022-09-30T06:39:28.236Z,8.50
2022-09-30T06:44:29.713Z,8.10
2022-09-30T06:49:45.512Z,7.57
2022-09-30T06:54:51.245Z,7.43
2022-09-30T06:59:52.721Z,7.88
2022-09-30T07:04:54.244Z,8.43
2022-09-30T07:09:59.584Z,7.28
2022-09-30T07:15:01.616Z,7.32
2022-09-30T07:20:03.349Z,9.80
2022-09-30T07:25:05.199Z,8.93
2022-09-30T07:30:11.937Z,9.43
2022-09-30T07:35:15.950Z,10.77
2022-09-30T07:40:17.560Z,9.80
2022-09-30T07:45:19.450Z,11.02
2022-09-30T07:50:21.190Z,10.20
2022-09-30T07:55:22.665Z,10.32
2022-09-30T08:00:41.723Z,7.82
2022-09-30T08:05:45.264Z,7.90
2022-09-30T08:10:46.856Z,8.00
2022-09-30T08:15:48.729Z,7.60
2022-09-30T08:20:50.401Z,7.85
2022-09-30T08:25:51.857Z,7.80
2022-09-30T08:30:53.328Z,7.25
2022-09-30T08:35:54.855Z,6.60
2022-09-30T08:41:14.921Z,6.38
2022-09-30T08:46:32.686Z,6.13
2022-09-30T08:51:38.370Z,5.22
2022-09-30T08:56:39.901Z,4.10
2022-09-30T09:01:47.095Z,4.18
2022-09-30T09:07:07.050Z,3.70
2022-09-30T09:12:11.328Z,3.97
2022-09-30T09:17:23.719Z,2.70
2022-09-30T09:22:28.058Z,2.20
2022-09-30T09:27:54.278Z,1.70
2022-09-30T09:33:15.535Z,1.40
2022-09-30T09:38:55.276Z,1.55
2022-09-30T09:44:24.151Z,1.63
2022-09-30T09:49:31.564Z,1.90
2022-09-30T09:54:37.578Z,2.47
2022-09-30T09:59:54.959Z,3.22
2022-09-30T10:05:03.942Z,2.70
2022-09-30T10:10:19.653Z,2.15
2022-09-30T10:15:26.398Z,2.50
2022-09-30T10:20:36.721Z,2.75
2022-09-30T10:25:38.278Z,4.10
2022-09-30T10:30:45.842Z,4.57
2022-09-30T10:35:56.681Z,3.90
2022-09-30T10:40:58.930Z,3.30
2022-09-30T10:46:24.668Z,3.20
2022-09-30T10:51:29.698Z,3.75
2022-09-30T10:56:44.150Z,4.32
2022-09-30T11:01:57.637Z,4.38
2022-09-30T11:07:22.759Z,5.68
2022-09-30T11:12:47.251Z,6.38
2022-09-30T11:17:48.650Z,6.28
2022-09-30T11:22:56.610Z,6.90
2022-09-30T11:28:07.026Z,6.82
2022-09-30T11:33:34.633Z,8.52
2022-09-30T11:38:50.569Z,7.88
2022-09-30T11:44:19.959Z,7.90
2022-09-30T11:49:27.291Z,7.15
2022-09-30T11:59:53.861Z,4.15
2022-09-30T12:05:02.360Z,2.38
2022-09-30T12:10:16.577Z,1.92
2022-09-30T12:15:21.476Z,1.50
2022-09-30T12:20:26.467Z,1.45
2022-09-30T12:25:43.938Z,1.20
2022-09-30T12:30:46.738Z,0.90
2022-09-30T12:36:06.496Z,0.77
2022-09-30T12:41:25.061Z,0.80
2022-09-30T12:46:35.417Z,1.00
2022-09-30T12:51:43.201Z,1.02
2022-09-30T12:56:49.595Z,0.88
2022-09-30T13:01:51.234Z,1.13
2022-09-30T13:06:52.659Z,0.80
2022-09-30T13:11:54.072Z,1.08
2022-09-30T13:17:06.562Z,0.80
2022-09-30T13:22:32.315Z,1.10
2022-09-30T13:27:35.039Z,1.05
2022-09-30T13:32:37.793Z,1.00
2022-09-30T13:37:40.185Z,1.10
2022-09-30T13:42:50.429Z,1.20
2022-09-30T13:48:13.593Z,1.08
2022-09-30T13:53:22.079Z,1.20
2022-09-30T13:58:35.743Z,1.20
2022-09-30T14:03:58.545Z,1.60
2022-09-30T14:09:16.427Z,2.05
2022-09-30T14:14:39.067Z,2.28
2022-09-30T14:20:19.948Z,2.83
2022-09-30T14:25:21.650Z,2.58
2022-09-30T14:30:27.337Z,2.35
2022-09-30T14:35:31.574Z,2.17
2022-09-30T14:40:36.315Z,1.85
2022-09-30T14:45:42.216Z,1.65
2022-09-30T14:50:52.710Z,1.70
2022-09-30T14:55:54.249Z,1.70
2022-09-30T15:01:02.699Z,2.05
2022-09-30T15:06:10.576Z,2.00
2022-09-30T15:11:19.353Z,2.40
2022-09-30T15:16:32.035Z,2.22
2022-09-30T15:21:34.898Z,1.92
2022-09-30T15:26:36.986Z,2.00
2022-09-30T15:31:46.659Z,1.25
2022-09-30T15:36:56.589Z,0.80
2022-09-30T15:41:58.246Z,1.20
2022-09-30T15:47:10.056Z,1.27
2022-09-30T15:52:30.613Z,0.98
2022-09-30T15:57:47.325Z,3.60
2022-09-30T16:02:48.845Z,1.40
2022-09-30T16:07:50.343Z,1.80
2022-09-30T16:17:58.269Z,2.55
2022-09-30T16:23:02.429Z,2.72
2022-09-30T16:28:15.060Z,2.03
2022-09-30T16:33:17.296Z,4.13
2022-09-30T16:38:19.932Z,2.65
2022-09-30T16:43:22.050Z,3.13
2022-09-30T16:48:26.066Z,3.20
2022-09-30T16:53:27.740Z,3.80
2022-09-30T16:58:31.099Z,4.70
2022-09-30T17:03:32.843Z,5.43
2022-09-30T17:08:34.330Z,5.40
2022-09-30T17:13:35.785Z,6.20
2022-09-30T17:18:37.413Z,5.57
2022-09-30T17:23:39.269Z,6.05
2022-09-30T17:28:40.853Z,6.30
2022-09-30T17:33:42.622Z,5.78
2022-09-30T17:38:44.121Z,6.20
2022-09-30T17:43:45.852Z,5.63
2022-09-30T17:48:47.735Z,5.50
2022-09-30T17:53:49.318Z,4.82
2022-09-30T17:58:51.014Z,4.80
2022-09-30T18:03:53.487Z,4.50
2022-09-30T18:08:55.632Z,4.50
2022-09-30T18:13:59.424Z,4.88
2022-09-30T18:19:03.934Z,5.45
2022-09-30T18:24:06.679Z,4.45
2022-09-30T18:29:08.209Z,5.40
2022-09-30T18:34:13.108Z,9.50
2022-09-30T18:39:14.769Z,6.20
2022-09-30T18:44:16.235Z,6.05
2022-09-30T18:49:17.697Z,8.18
2022-09-30T18:54:19.150Z,6.00
2022-09-30T18:59:23.360Z,6.38
2022-09-30T19:04:25.994Z,7.63
2022-09-30T19:09:28.274Z,8.50
2022-09-30T19:14:30.682Z,11.02
2022-09-30T19:19:36.053Z,8.13
2022-09-30T19:24:41.960Z,5.50
2022-09-30T19:29:46.360Z,4.50
2022-09-30T19:34:57.361Z,3.70
2022-09-30T19:40:10.261Z,5.25
2022-09-30T19:45:16.292Z,5.80
2022-09-30T19:50:18.033Z,4.50
2022-09-30T19:55:19.505Z,3.80
2022-09-30T20:00:21.286Z,4.00
2022-09-30T20:05:23.607Z,4.40
2022-09-30T20:10:25.264Z,3.20
2022-09-30T20:15:46.359Z,4.30
2022-09-30T20:20:48.155Z,4.60
2022-09-30T20:25:51.463Z,2.67
2022-09-30T20:30:52.929Z,4.07
2022-09-30T20:35:54.549Z,3.25
2022-09-30T20:41:01.114Z,3.65
2022-09-30T20:46:05.152Z,3.00
2022-09-30T20:51:11.846Z,3.28
2022-09-30T20:56:15.122Z,2.60
2022-09-30T21:01:18.607Z,2.63
2022-09-30T21:06:28.297Z,2.85
2022-09-30T21:11:29.908Z,2.70
2022-09-30T21:16:31.818Z,2.97
2022-09-30T21:21:33.570Z,3.22
2022-09-30T21:26:35.593Z,3.50
2022-09-30T21:31:38.051Z,2.90
2022-09-30T21:36:40.255Z,3.30
2022-09-30T21:41:42.378Z,3.33
2022-09-30T21:46:48.513Z,3.45
2022-09-30T21:51:52.924Z,3.90
2022-09-30T21:56:54.438Z,3.35
2022-09-30T22:01:56.162Z,3.95
2022-09-30T22:06:57.722Z,3.63
2022-09-30T22:11:59.572Z,4.40
2022-09-30T22:17:01.027Z,4.10
2022-09-30T22:22:02.886Z,4.35
2022-09-30T22:27:08.967Z,4.82
2022-09-30T22:32:10.469Z,4.68
2022-09-30T22:37:30.480Z,4.45
2022-09-30T22:42:31.947Z,4.32
2022-09-30T22:47:33.736Z,4.78
2022-09-30T22:52:35.218Z,4.78
2022-09-30T22:57:36.747Z,4.85
2022-09-30T23:02:38.292Z,5.10
2022-09-30T23:07:40.694Z,4.78
2022-09-30T23:12:42.185Z,4.45
2022-09-30T23:17:43.625Z,4.88
2022-09-30T23:22:45.101Z,5.10
2022-09-30T23:27:49.401Z,5.30
2022-09-30T23:32:51.118Z,5.65
2022-09-30T23:37:52.840Z,5.10
2022-09-30T23:42:55.234Z,4.57
2022-09-30T23:47:59.082Z,6.03
2022-09-30T23:53:01.137Z,5.55
2022-09-30T23:58:02.675Z,5.53
